Time;durP1;ratioP1;P1;durP2;ratioP2;P2;SDS_P1;SDS_P2;PMS_P1;PMS_P2;Temp;Humidity;BMP_temperature;BMP_pressure;BME280_temperature;BME280_humidity;BME280_pressure;Samples;Min_cycle;Max_cycle;Signal;HPM_P1;HPM_P2
2021/06/16 09:37:19;;;;;;;8.95;4.40;;;31.60;87.90;;;;;;5125676;27;20164;-75
2021/06/16 09:39:45;;;;;;;10.63;4.32;;;33.90;45.70;;;;;;5096152;28;20448;-73
2021/06/16 09:42:14;;;;;;;11.23;4.57;;;33.90;45.10;;;;;;5096069;28;20102;-74
2021/06/16 09:44:42;;;;;;;9.55;4.07;;;34.20;44.40;;;;;;5091435;28;20085;-76
2021/06/16 09:47:18;;;;;;;11.35;4.00;;;34.90;43.40;;;;;;5092749;28;20019;-72
2021/06/16 09:49:58;;;;;;;21.92;5.78;;;34.60;43.90;;;;;;5093400;28;20046;-73
2021/06/16 09:52:43;;;;;;;7.80;4.20;;;35.90;42.20;;;;;;5092165;28;20480;-66
2021/06/16 09:55:21;;;;;;;9.77;4.20;;;36.30;41.90;;;;;;5108678;28;20080;-68
2021/06/16 09:58:05;;;;;;;9.60;3.60;;;37.30;39.40;;;;;;5108669;28;20027;-72
2021/06/16 10:00:36;;;;;;;8.02;3.80;;;38.50;38.20;;;;;;5110077;28;20028;-69
2021/06/16 10:03:12;;;;;;;12.63;4.10;;;38.80;37.40;;;;;;5092148;28;20498;-70
2021/06/16 10:06:06;;;;;;;11.05;4.03;;;37.60;39.10;;;;;;5092434;28;20035;-70
2021/06/16 10:08:32;;;;;;;9.38;3.70;;;38.30;39.40;;;;;;5110651;28;20094;-69
2021/06/16 10:10:58;;;;;;;8.73;3.65;;;38.70;37.20;;;;;;5109947;28;20028;-69
2021/06/16 10:13:26;;;;;;;9.80;3.75;;;39.40;37.10;;;;;;5091720;28;20012;-71
2021/06/16 10:15:53;;;;;;;9.00;3.58;;;39.60;36.90;;;;;;5091873;28;20031;-72
2021/06/16 10:18:20;;;;;;;11.95;3.75;;;39.60;36.80;;;;;;5110291;28;20020;-69
2021/06/16 10:20:46;;;;;;;6.30;3.00;;;39.00;37.50;;;;;;5110263;28;20024;-69
2021/06/16 10:23:12;;;;;;;6.97;3.38;;;38.10;38.10;;;;;;5110105;28;20020;-71
2021/06/16 10:25:38;;;;;;;10.23;3.33;;;37.90;38.60;;;;;;5091908;28;20310;-68
2021/06/16 10:28:05;;;;;;;9.25;3.50;;;37.60;38.50;;;;;;5110056;28;20035;-70
2021/06/16 10:30:37;;;;;;;13.40;3.45;;;36.50;40.60;;;;;;5110031;28;20115;-70
2021/06/16 10:33:23;;;;;;;10.52;3.65;;;36.20;41.20;;;;;;5110002;28;20066;-71
2021/06/16 10:36:10;;;;;;;9.18;3.53;;;36.40;40.80;;;;;;5109436;28;20048;-71
2021/06/16 10:38:36;;;;;;;8.35;3.30;;;36.70;40.50;;;;;;5109975;28;20379;-70
2021/06/16 10:41:02;;;;;;;6.50;3.08;;;36.30;40.80;;;;;;5109776;28;20027;-70
2021/06/16 10:43:32;;;;;;;9.73;3.15;;;36.00;40.70;;;;;;5109781;28;20016;-71
2021/06/16 10:46:00;;;;;;;10.15;3.30;;;35.70;41.20;;;;;;5109835;28;20027;-70
2021/06/16 10:48:48;;;;;;;9.45;3.35;;;34.60;42.80;;;;;;5096987;28;20491;-70
2021/06/16 10:51:28;;;;;;;8.90;3.28;;;33.90;43.80;;;;;;5096191;28;20161;-71
2021/06/16 10:54:12;;;;;;;9.82;3.35;;;33.80;44.80;;;;;;5096078;28;20034;-70
2021/06/16 10:57:00;;;;;;;;;;;33.70;44.30;;;;;;5096264;28;20037;-74
2021/06/16 11:00:09;;;;;;;8.88;3.40;;;33.60;44.20;;;;;;5084978;28;19943;-70
2021/06/16 11:02:41;;;;;;;7.03;3.20;;;33.90;44.50;;;;;;5056710;28;20032;-70
2021/06/16 11:05:23;;;;;;;9.77;3.58;;;34.20;44.30;;;;;;5095690;28;20024;-69
2021/06/16 11:07:49;;;;;;;8.27;3.20;;;34.60;44.20;;;;;;5095695;28;20571;-69
2021/06/16 11:10:15;;;;;;;7.25;3.17;;;35.10;43.40;;;;;;5095708;28;20095;-70
2021/06/16 11:12:43;;;;;;;5.78;2.90;;;35.50;42.00;;;;;;5096057;28;20107;-70
2021/06/16 11:15:24;;;;;;;9.48;3.30;;;34.80;43.20;;;;;;5095467;28;20471;-70
2021/06/16 11:17:54;;;;;;;10.55;2.95;;;34.70;41.70;;;;;;5095600;28;20043;-68
2021/06/16 11:20:33;;;;;;;8.55;2.90;;;33.70;43.60;;;;;;5095498;28;20027;-70
2021/06/16 11:23:01;;;;;;;6.55;2.70;;;33.80;44.00;;;;;;5095720;28;20052;-71
2021/06/16 11:25:34;;;;;;;6.65;3.10;;;34.00;43.20;;;;;;5094543;28;20091;-69
2021/06/16 11:28:09;;;;;;;6.32;2.83;;;33.90;43.30;;;;;;5095037;28;20097;-69
2021/06/16 11:30:46;;;;;;;7.18;2.72;;;33.40;43.50;;;;;;5094309;28;20028;-70
2021/06/16 11:33:12;;;;;;;8.65;3.03;;;33.50;43.40;;;;;;5094602;28;20035;-70
2021/06/16 11:35:40;;;;;;;7.07;2.92;;;33.10;44.20;;;;;;5093924;28;20403;-67
2021/06/16 11:38:06;;;;;;;6.63;2.75;;;32.80;43.40;;;;;;5095161;28;20019;-70
2021/06/16 11:40:32;;;;;;;11.40;3.05;;;32.50;44.60;;;;;;5095170;28;20103;-69
2021/06/16 11:42:59;;;;;;;8.15;2.85;;;32.80;43.80;;;;;;5095024;28;20044;-68
2021/06/16 11:45:27;;;;;;;9.05;2.90;;;32.60;43.70;;;;;;5094970;28;20027;-71
2021/06/16 11:47:58;;;;;;;8.05;2.83;;;32.70;44.20;;;;;;5094943;28;20020;-68
2021/06/16 11:50:30;;;;;;;8.57;2.90;;;32.30;43.60;;;;;;5095304;28;20073;-71
2021/06/16 11:53:06;;;;;;;6.38;2.67;;;32.20;44.40;;;;;;5094875;28;20027;-68
2021/06/16 11:55:40;;;;;;;5.75;2.70;;;32.30;44.10;;;;;;5094859;28;20032;-69
2021/06/16 11:58:24;;;;;;;8.13;2.90;;;32.00;44.00;;;;;;5094472;28;20472;-68
2021/06/16 12:00:52;;;;;;;7.18;2.97;;;31.80;45.00;;;;;;5094347;28;20020;-70
2021/06/16 12:03:18;;;;;;;6.10;3.08;;;31.70;44.70;;;;;;5094892;28;20019;-71
2021/06/16 12:05:45;;;;;;;6.00;2.70;;;31.50;45.50;;;;;;5094721;28;20028;-70
2021/06/16 12:08:10;;;;;;;6.72;2.90;;;31.60;45.90;;;;;;5094588;28;20047;-67
2021/06/16 12:10:36;;;;;;;7.65;3.10;;;31.80;45.70;;;;;;5094733;28;20472;-68
2021/06/16 12:13:05;;;;;;;8.65;2.80;;;31.70;45.90;;;;;;5094577;28;20032;-68
2021/06/16 12:15:36;;;;;;;9.10;3.40;;;31.50;47.10;;;;;;5094323;28;20458;-71
2021/06/16 12:18:10;;;;;;;8.48;3.15;;;31.30;48.20;;;;;;5094420;28;20095;-67
2021/06/16 12:20:41;;;;;;;8.73;3.65;;;31.30;48.70;;;;;;5094522;28;20020;-68
2021/06/16 12:23:19;;;;;;;10.10;3.40;;;31.20;49.60;;;;;;5094219;28;20099;-70
2021/06/16 12:25:45;;;;;;;9.90;3.30;;;31.00;49.50;;;;;;5094279;28;20023;-69
2021/06/16 12:28:11;;;;;;;9.48;3.58;;;30.80;49.80;;;;;;5094227;28;20110;-70
2021/06/16 12:30:38;;;;;;;10.18;3.70;;;30.70;50.30;;;;;;5094144;28;20095;-68
2021/06/16 12:33:14;;;;;;;7.82;3.60;;;30.70;50.20;;;;;;5094082;28;20032;-66
2021/06/16 12:35:43;;;;;;;10.35;3.85;;;30.50;50.20;;;;;;5093941;28;20441;-70
2021/06/16 12:38:10;;;;;;;9.57;3.53;;;30.20;51.00;;;;;;5094002;28;20035;-70
2021/06/16 12:40:40;;;;;;;9.05;3.72;;;30.20;50.90;;;;;;5094244;28;20379;-72
2021/06/16 12:43:08;;;;;;;11.77;3.70;;;30.20;50.40;;;;;;5093891;28;20028;-68
2021/06/16 12:45:42;;;;;;;6.97;3.40;;;30.30;50.90;;;;;;5093883;28;20111;-68
2021/06/16 12:48:19;;;;;;;10.80;4.22;;;30.60;50.70;;;;;;5093880;28;20032;-72
2021/06/16 12:51:02;;;;;;;9.98;3.85;;;30.60;50.60;;;;;;5094002;28;20038;-70
2021/06/16 12:53:29;;;;;;;8.48;3.70;;;30.60;50.00;;;;;;5093921;28;20478;-69
2021/06/16 12:55:58;;;;;;;7.50;3.60;;;30.10;50.80;;;;;;5093569;28;20502;-68
2021/06/16 12:58:25;;;;;;;9.95;3.70;;;29.70;51.40;;;;;;5093627;28;20024;-71
2021/06/16 13:00:53;;;;;;;8.25;3.80;;;29.40;53.40;;;;;;5093844;28;20422;-69
2021/06/16 13:03:22;;;;;;;11.25;3.55;;;29.30;53.90;;;;;;5093570;28;20020;-69
2021/06/16 13:05:56;;;;;;;8.52;3.33;;;28.90;53.20;;;;;;5093540;28;20077;-67
2021/06/16 13:08:32;;;;;;;9.60;3.80;;;28.90;53.20;;;;;;5093523;28;20032;-72
2021/06/16 13:10:58;;;;;;;9.38;3.63;;;29.00;52.80;;;;;;5093375;28;20111;-68
2021/06/16 13:13:24;;;;;;;8.80;3.72;;;28.70;52.90;;;;;;5093596;28;20063;-71
2021/06/16 13:15:52;;;;;;;7.97;3.38;;;28.70;53.10;;;;;;5093327;28;20020;-69
2021/06/16 13:18:20;;;;;;;8.88;3.53;;;28.60;53.40;;;;;;5093387;28;20066;-68
2021/06/16 13:20:49;;;;;;;8.52;3.40;;;28.60;52.50;;;;;;5093505;28;20024;-67
2021/06/16 13:23:17;;;;;;;8.98;3.58;;;28.20;52.40;;;;;;5093229;28;20031;-69
2021/06/16 13:25:44;;;;;;;12.57;3.70;;;28.20;53.40;;;;;;5075288;28;20086;-70
2021/06/16 13:28:30;;;;;;;8.45;3.40;;;28.30;53.20;;;;;;5075038;28;20039;-71
2021/06/16 13:31:01;;;;;;;9.30;3.63;;;28.20;52.70;;;;;;5093476;28;20047;-69
2021/06/16 13:33:31;;;;;;;9.50;3.65;;;28.10;53.30;;;;;;5093223;28;20032;-70
2021/06/16 13:35:58;;;;;;;8.05;3.22;;;27.90;54.10;;;;;;5092914;28;20445;-68
2021/06/16 13:38:26;;;;;;;8.30;3.65;;;27.90;54.00;;;;;;5093313;28;20471;-69
2021/06/16 13:40:53;;;;;;;9.43;3.47;;;27.70;54.50;;;;;;5093130;28;20016;-68
2021/06/16 13:43:18;;;;;;;11.32;4.22;;;27.60;55.20;;;;;;5093053;28;20384;-67
2021/06/16 13:45:44;;;;;;;9.00;3.78;;;27.40;56.10;;;;;;5093062;28;20024;-69
2021/06/16 13:48:11;;;;;;;9.68;3.63;;;27.30;56.70;;;;;;5093048;28;20455;-68
2021/06/16 13:50:37;;;;;;;10.88;3.83;;;27.30;57.90;;;;;;5093041;28;20028;-71
2021/06/16 13:53:02;;;;;;;8.07;3.75;;;27.30;57.20;;;;;;5092965;28;20027;-70
2021/06/16 13:55:28;;;;;;;33.00;5.80;;;27.30;56.40;;;;;;5092947;28;20028;-68
2021/06/16 13:57:54;;;;;;;8.00;3.60;;;27.30;56.90;;;;;;5092921;28;20027;-69
2021/06/16 14:00:21;;;;;;;9.13;3.65;;;27.40;56.40;;;;;;5050546;28;20024;-68
2021/06/16 14:02:47;;;;;;;11.82;4.65;;;27.60;55.50;;;;;;5092378;28;20024;-70
2021/06/16 14:05:13;;;;;;;11.68;4.10;;;27.60;55.00;;;;;;5092325;28;20076;-70
2021/06/16 14:07:39;;;;;;;8.88;4.15;;;27.50;55.50;;;;;;5092293;28;20077;-66
2021/06/16 14:10:07;;;;;;;9.60;4.05;;;27.40;56.50;;;;;;5081226;28;20028;-70
2021/06/16 14:12:33;;;;;;;11.77;4.35;;;27.30;56.00;;;;;;5072220;28;20490;-68
2021/06/16 14:14:59;;;;;;;8.30;3.60;;;27.10;56.50;;;;;;5072287;28;20022;-68
2021/06/16 14:17:24;;;;;;;10.57;4.10;;;27.30;57.20;;;;;;5088391;28;20032;-70
2021/06/16 14:19:50;;;;;;;13.77;4.53;;;27.30;56.70;;;;;;5071821;28;20021;-69
2021/06/16 14:22:17;;;;;;;8.27;4.10;;;27.30;57.00;;;;;;5072885;28;20031;-67
2021/06/16 14:24:43;;;;;;;8.25;4.60;;;27.40;57.40;;;;;;5075967;28;20016;-70
2021/06/16 14:27:09;;;;;;;16.98;4.55;;;27.30;57.50;;;;;;5075886;28;20031;-69
2021/06/16 14:29:35;;;;;;;9.80;4.22;;;27.20;57.60;;;;;;5075237;28;20087;-70
2021/06/16 14:32:01;;;;;;;10.70;4.50;;;27.10;58.10;;;;;;5075704;28;20112;-70
2021/06/16 14:34:27;;;;;;;10.88;4.40;;;27.10;58.70;;;;;;5075570;28;20520;-71
2021/06/16 14:36:53;;;;;;;10.18;3.90;;;27.20;58.30;;;;;;5075194;28;20454;-68
2021/06/16 14:39:20;;;;;;;9.27;4.20;;;27.20;58.20;;;;;;5075269;28;20101;-69
2021/06/16 14:41:46;;;;;;;8.70;4.22;;;27.30;58.50;;;;;;5075309;28;20020;-71
2021/06/16 14:44:11;;;;;;;8.52;3.78;;;27.10;59.00;;;;;;5075638;28;20029;-69
2021/06/16 14:46:37;;;;;;;10.40;3.95;;;27.40;58.30;;;;;;5075419;28;20116;-70
2021/06/16 14:49:03;;;;;;;8.25;3.97;;;27.60;57.80;;;;;;5075558;28;20096;-70
2021/06/16 14:51:30;;;;;;;8.65;3.83;;;27.80;57.50;;;;;;5095143;28;20028;-68
2021/06/16 14:53:56;;;;;;;7.53;3.72;;;27.80;57.40;;;;;;5095876;28;20020;-67
2021/06/16 14:56:22;;;;;;;7.32;3.70;;;27.90;57.40;;;;;;5095549;28;20549;-71
2021/06/16 14:58:48;;;;;;;8.60;4.07;;;28.00;57.50;;;;;;5095624;28;20529;-69
2021/06/16 15:01:13;;;;;;;12.52;3.85;;;28.10;57.10;;;;;;5075853;28;20036;-70
2021/06/16 15:03:39;;;;;;;9.93;3.88;;;28.20;56.70;;;;;;5095460;28;20016;-70
2021/06/16 15:06:05;;;;;;;8.48;4.35;;;28.20;56.90;;;;;;5095508;28;20494;-69
2021/06/16 15:08:31;;;;;;;9.98;3.95;;;28.00;57.10;;;;;;5095355;28;20099;-70
2021/06/16 15:10:57;;;;;;;12.77;3.88;;;27.80;57.60;;;;;;5094984;28;20491;-69
2021/06/16 15:13:24;;;;;;;9.90;4.57;;;27.70;57.80;;;;;;5095276;28;20025;-69
2021/06/16 15:15:50;;;;;;;9.45;4.30;;;27.60;58.00;;;;;;5095082;28;20436;-67
2021/06/16 15:18:16;;;;;;;9.57;4.20;;;27.60;57.90;;;;;;5094958;28;20084;-69
2021/06/16 15:20:43;;;;;;;10.15;4.20;;;27.40;58.30;;;;;;5094606;28;20024;-70
2021/06/16 15:23:10;;;;;;;11.20;4.68;;;27.10;58.70;;;;;;5094947;28;20024;-69
2021/06/16 15:25:40;;;;;;;10.35;4.28;;;26.90;59.50;;;;;;5095087;28;20032;-68
2021/06/16 15:28:07;;;;;;;9.75;3.88;;;26.60;60.50;;;;;;5095172;28;20483;-69
2021/06/16 15:30:33;;;;;;;14.15;4.85;;;26.80;60.70;;;;;;5094644;28;20082;-68
2021/06/16 15:33:00;;;;;;;14.88;4.80;;;27.00;61.20;;;;;;5094687;28;20085;-68
2021/06/16 15:35:26;;;;;;;13.77;5.40;;;27.00;60.50;;;;;;5094678;28;20044;-68
2021/06/16 15:37:53;;;;;;;10.70;4.63;;;26.70;61.30;;;;;;5094879;28;20411;-71
2021/06/16 15:40:20;;;;;;;11.40;4.13;;;26.70;62.20;;;;;;5094536;28;20020;-68
2021/06/16 15:42:47;;;;;;;16.40;4.50;;;26.70;62.20;;;;;;5094728;28;20026;-70
2021/06/16 15:45:16;;;;;;;13.25;5.30;;;27.00;61.50;;;;;;5094867;28;20028;-68
2021/06/16 15:47:41;;;;;;;13.70;5.80;;;26.80;61.80;;;;;;5094457;28;20329;-71
2021/06/16 15:50:08;;;;;;;18.15;6.10;;;26.70;62.10;;;;;;5088290;28;20036;-69
2021/06/16 15:52:35;;;;;;;16.58;7.43;;;26.60;62.40;;;;;;5074277;28;20039;-68
2021/06/16 15:55:01;;;;;;;17.02;8.38;;;26.60;63.00;;;;;;5074221;28;20021;-69
2021/06/16 15:57:27;;;;;;;17.67;7.88;;;26.60;63.50;;;;;;5089838;28;20017;-69
2021/06/16 15:59:53;;;;;;;15.63;7.00;;;26.50;64.60;;;;;;5073931;28;20047;-69
2021/06/16 16:02:19;;;;;;;11.43;5.78;;;26.50;66.60;;;;;;5055481;28;20041;-68
2021/06/16 16:04:45;;;;;;;14.65;5.70;;;26.40;67.00;;;;;;5073919;28;20074;-68
2021/06/16 16:07:10;;;;;;;13.23;5.47;;;26.30;68.10;;;;;;5074085;28;20494;-68
2021/06/16 16:09:36;;;;;;;10.68;5.20;;;26.10;69.40;;;;;;5075336;28;20101;-69
2021/06/16 16:12:03;;;;;;;14.00;7.35;;;26.40;68.40;;;;;;5094061;28;20058;-70
2021/06/16 16:14:28;;;;;;;11.55;5.68;;;26.40;67.90;;;;;;5094236;28;20450;-68
2021/06/16 16:16:54;;;;;;;10.50;5.60;;;26.30;69.30;;;;;;5093743;28;20107;-69
2021/06/16 16:19:20;;;;;;;12.13;6.60;;;26.50;68.30;;;;;;5094275;28;20012;-69
2021/06/16 16:21:50;;;;;;;10.18;6.03;;;26.20;68.50;;;;;;5074322;28;20047;-67
2021/06/16 16:24:17;;;;;;;12.93;5.70;;;26.30;68.80;;;;;;5073675;28;20100;-71
2021/06/16 16:26:44;;;;;;;12.90;6.20;;;26.40;68.30;;;;;;5073921;28;20025;-70
2021/06/16 16:29:10;;;;;;;11.50;6.60;;;26.30;68.80;;;;;;5073460;28;20104;-68
2021/06/16 16:31:36;;;;;;;11.23;6.00;;;26.50;68.00;;;;;;5073855;28;20103;-68
2021/06/16 16:34:03;;;;;;;13.73;6.88;;;26.50;68.30;;;;;;5089552;28;20040;-70
2021/06/16 16:36:30;;;;;;;14.77;7.47;;;26.30;68.80;;;;;;5073548;28;20037;-69
2021/06/16 16:38:55;;;;;;;11.77;6.47;;;26.20;69.30;;;;;;5073774;28;20594;-74
2021/06/16 16:41:21;;;;;;;14.38;6.78;;;26.10;69.00;;;;;;5073769;28;20103;-69
2021/06/16 16:43:47;;;;;;;13.05;6.93;;;26.10;68.60;;;;;;5073748;28;20085;-68
2021/06/16 16:46:13;;;;;;;12.38;6.60;;;26.00;69.50;;;;;;5073190;28;20025;-70
2021/06/16 16:48:38;;;;;;;12.40;7.32;;;25.90;70.20;;;;;;5073701;28;20029;-70
2021/06/16 16:51:04;;;;;;;14.57;7.43;;;25.90;70.00;;;;;;5073514;28;20111;-71
2021/06/16 16:53:30;;;;;;;14.20;7.57;;;25.70;70.80;;;;;;5073456;28;20025;-69
2021/06/16 16:55:56;;;;;;;13.85;6.88;;;25.80;69.70;;;;;;5073471;28;20070;-72
2021/06/16 16:58:22;;;;;;;13.40;7.85;;;25.80;70.20;;;;;;5073629;28;20024;-66
2021/06/16 17:00:47;;;;;;;14.43;7.72;;;25.70;69.40;;;;;;5073501;28;20016;-68
2021/06/16 17:03:13;;;;;;;12.73;7.47;;;25.60;69.00;;;;;;5073436;28;20017;-71
2021/06/16 17:05:39;;;;;;;13.98;7.35;;;25.60;69.40;;;;;;5073432;28;20469;-71
2021/06/16 17:08:05;;;;;;;13.52;7.47;;;25.50;70.10;;;;;;5073477;28;20060;-69
2021/06/16 17:10:31;;;;;;;11.65;7.85;;;25.50;70.80;;;;;;5088922;28;20388;-70
2021/06/16 17:12:57;;;;;;;14.85;7.75;;;25.30;72.50;;;;;;5073335;28;20036;-72
2021/06/16 17:15:24;;;;;;;14.40;8.38;;;25.20;72.70;;;;;;5073204;28;20028;-70
2021/06/16 17:17:50;;;;;;;11.68;7.32;;;25.20;72.30;;;;;;5088807;28;20074;-70
2021/06/16 17:20:19;;;;;;;12.35;8.30;;;25.40;72.10;;;;;;5073201;28;20027;-70
2021/06/16 17:22:46;;;;;;;15.15;8.63;;;25.30;71.90;;;;;;5073121;28;20036;-70
2021/06/16 17:25:14;;;;;;;14.38;8.23;;;25.30;72.30;;;;;;5073186;28;20024;-70
2021/06/16 17:27:41;;;;;;;15.13;7.57;;;25.30;71.70;;;;;;5073620;28;20099;-70
2021/06/16 17:30:09;;;;;;;15.77;8.57;;;25.30;71.60;;;;;;5073162;28;20043;-70
2021/06/16 17:32:36;;;;;;;14.55;7.30;;;25.20;71.80;;;;;;5073207;28;20028;-67
2021/06/16 17:35:02;;;;;;;14.15;7.45;;;25.40;71.10;;;;;;5072960;28;20108;-72
2021/06/16 17:37:29;;;;;;;15.93;7.70;;;25.30;71.20;;;;;;5073086;28;20074;-68
2021/06/16 17:39:55;;;;;;;15.38;8.02;;;25.30;70.90;;;;;;5073167;28;20048;-72
2021/06/16 17:42:21;;;;;;;12.85;8.05;;;25.00;71.60;;;;;;5072902;28;20135;-69
2021/06/16 17:44:47;;;;;;;13.60;8.05;;;25.00;71.60;;;;;;5072864;28;20028;-71
2021/06/16 17:47:14;;;;;;;13.57;8.18;;;24.90;71.80;;;;;;5072915;28;20024;-69
2021/06/16 17:49:41;;;;;;;13.30;7.90;;;24.80;72.30;;;;;;5072938;28;20108;-69
2021/06/16 17:52:08;;;;;;;12.85;8.50;;;24.70;72.40;;;;;;5072961;28;20074;-69
2021/06/16 17:54:35;;;;;;;14.23;8.40;;;24.60;72.30;;;;;;5072877;28;20024;-71
2021/06/16 17:57:00;;;;;;;13.95;8.40;;;24.50;72.90;;;;;;5073263;28;20052;-69
2021/06/16 17:59:26;;;;;;;15.75;8.60;;;24.50;72.50;;;;;;5077407;28;20055;-70
2021/06/16 18:01:52;;;;;;;15.13;9.15;;;24.40;72.60;;;;;;5076844;28;20082;-70
2021/06/16 18:04:18;;;;;;;15.57;9.50;;;24.30;72.70;;;;;;5076844;28;20085;-69
2021/06/16 18:06:44;;;;;;;13.88;8.90;;;24.20;72.60;;;;;;5076720;28;20488;-69
2021/06/16 18:09:10;;;;;;;16.30;9.38;;;24.10;73.30;;;;;;5076753;28;20079;-70
2021/06/16 18:11:37;;;;;;;13.75;9.20;;;23.90;74.00;;;;;;5076669;28;20028;-71
2021/06/16 18:14:06;;;;;;;14.13;9.18;;;24.10;73.30;;;;;;5076559;28;20082;-69
2021/06/16 18:16:37;;;;;;;15.63;10.30;;;24.00;73.30;;;;;;5076474;28;20029;-70
2021/06/16 18:19:04;;;;;;;13.40;9.38;;;23.90;73.00;;;;;;5076560;28;20502;-69
2021/06/16 18:21:29;;;;;;;15.90;9.75;;;23.80;73.30;;;;;;5076449;28;20055;-70
2021/06/16 18:23:55;;;;;;;16.98;10.05;;;23.70;73.90;;;;;;5076459;28;20020;-68
2021/06/16 18:26:21;;;;;;;15.40;10.85;;;23.70;72.90;;;;;;5076977;28;20028;-69
2021/06/16 18:28:48;;;;;;;19.02;11.02;;;23.60;74.00;;;;;;5076527;28;20024;-68
2021/06/16 18:31:16;;;;;;;16.90;9.90;;;23.50;73.70;;;;;;5076296;28;20052;-70
2021/06/16 18:33:42;;;;;;;16.30;10.38;;;23.40;74.10;;;;;;5076243;28;20029;-68
2021/06/16 18:36:08;;;;;;;15.30;9.90;;;23.60;73.40;;;;;;5075893;28;20048;-70
2021/06/16 18:38:34;;;;;;;15.20;9.98;;;23.70;72.80;;;;;;5076529;28;20021;-68
2021/06/16 18:41:00;;;;;;;15.77;10.52;;;23.70;73.30;;;;;;5076211;28;20358;-70
2021/06/16 18:43:27;;;;;;;15.20;10.02;;;23.60;74.00;;;;;;5076071;28;20028;-71
2021/06/16 18:45:53;;;;;;;17.27;11.82;;;23.60;73.70;;;;;;5075977;28;20033;-69
2021/06/16 18:48:19;;;;;;;15.57;10.52;;;23.50;74.00;;;;;;5075969;28;20028;-68
2021/06/16 18:50:46;;;;;;;16.60;10.55;;;23.30;74.30;;;;;;5076173;28;20021;-69
2021/06/16 18:53:12;;;;;;;17.00;11.98;;;23.50;74.10;;;;;;5075946;28;20040;-68
2021/06/16 18:55:38;;;;;;;19.75;12.90;;;23.50;73.80;;;;;;5075731;28;20029;-70
2021/06/16 18:58:08;;;;;;;17.65;12.38;;;23.20;74.60;;;;;;5075767;28;20020;-69
2021/06/16 19:00:40;;;;;;;19.52;12.48;;;23.20;75.20;;;;;;5075768;28;20021;-69
2021/06/16 19:05:43;;;;;;;17.88;11.32;;;23.30;75.00;;;;;;5075661;28;20028;-69
2021/06/16 19:08:13;;;;;;;16.08;12.02;;;23.30;74.90;;;;;;5075264;28;20476;-70
2021/06/16 19:10:42;;;;;;;19.80;11.63;;;23.20;74.50;;;;;;5075592;28;20020;-69
2021/06/16 19:13:08;;;;;;;20.70;11.27;;;23.10;74.90;;;;;;5075636;28;20115;-69
2021/06/16 19:15:36;;;;;;;16.90;11.35;;;23.10;74.90;;;;;;5075680;28;20024;-69
2021/06/16 19:18:02;;;;;;;17.08;10.50;;;23.20;74.10;;;;;;5074115;28;20063;-68
2021/06/16 19:20:28;;;;;;;16.85;10.90;;;23.20;74.10;;;;;;5075402;28;20048;-69
2021/06/16 19:22:58;;;;;;;15.90;11.27;;;23.20;74.30;;;;;;5075269;28;20384;-69
2021/06/16 19:25:26;;;;;;;16.65;12.25;;;23.10;74.20;;;;;;5075533;28;20017;-71
2021/06/16 19:27:52;;;;;;;20.70;11.70;;;23.00;75.00;;;;;;5075362;28;20028;-69
2021/06/16 19:30:19;;;;;;;20.20;12.32;;;22.90;74.50;;;;;;5075383;28;20024;-72
2021/06/16 19:32:51;;;;;;;17.85;12.48;;;22.80;75.30;;;;;;5075125;28;20013;-71
2021/06/16 19:35:17;;;;;;;16.83;11.73;;;22.70;75.40;;;;;;5074918;28;20464;-69
2021/06/16 19:37:44;;;;;;;17.65;11.35;;;22.60;76.30;;;;;;5075274;28;20090;-73
2021/06/16 19:40:11;;;;;;;15.85;10.55;;;22.60;76.10;;;;;;5075069;28;20043;-71
2021/06/16 19:42:37;;;;;;;19.25;12.38;;;22.80;75.20;;;;;;5075174;28;20066;-70
2021/06/16 19:45:07;;;;;;;18.50;11.70;;;22.70;75.50;;;;;;5074986;28;20020;-70
2021/06/16 19:47:34;;;;;;;19.05;13.18;;;22.60;76.00;;;;;;5074853;28;20056;-68
2021/06/16 19:49:59;;;;;;;15.77;11.25;;;22.50;76.50;;;;;;5074972;28;20095;-71
2021/06/16 19:52:26;;;;;;;23.23;14.55;;;22.50;76.70;;;;;;5074734;28;20054;-70
2021/06/16 19:54:52;;;;;;;18.17;11.77;;;22.40;77.80;;;;;;5074806;28;20099;-71
2021/06/16 19:57:18;;;;;;;19.25;14.32;;;22.40;76.90;;;;;;5074604;28;20035;-70
2021/06/16 19:59:43;;;;;;;21.08;14.07;;;22.30;76.30;;;;;;5075132;28;20024;-70
2021/06/16 20:02:09;;;;;;;22.98;14.75;;;22.20;76.80;;;;;;5074578;28;20027;-70
2021/06/16 20:04:35;;;;;;;18.45;13.75;;;22.10;76.80;;;;;;5074702;28;20103;-71
2021/06/16 20:07:01;;;;;;;17.65;13.15;;;22.10;77.20;;;;;;5074458;28;20024;-69
2021/06/16 20:09:26;;;;;;;19.00;13.77;;;22.00;77.20;;;;;;5074489;28;20063;-70
2021/06/16 20:11:52;;;;;;;18.65;13.65;;;22.00;76.40;;;;;;5074275;28;20081;-68
2021/06/16 20:14:20;;;;;;;21.50;15.00;;;21.90;75.10;;;;;;5074330;28;20376;-70
2021/06/16 20:16:46;;;;;;;23.17;15.05;;;21.70;75.70;;;;;;5074307;28;20028;-68
2021/06/16 20:19:14;;;;;;;20.52;15.48;;;21.60;76.30;;;;;;5073989;28;20028;-70
2021/06/16 20:21:44;;;;;;;21.70;15.25;;;21.60;75.80;;;;;;5073700;28;20511;-70
2021/06/16 20:24:11;;;;;;;21.83;15.57;;;21.60;76.20;;;;;;5074267;28;20012;-69
2021/06/16 20:26:37;;;;;;;21.73;15.20;;;21.40;76.30;;;;;;5074064;28;20025;-70
2021/06/16 20:29:03;;;;;;;20.55;15.43;;;21.30;76.40;;;;;;5073981;28;20100;-67
2021/06/16 20:31:32;;;;;;;22.83;17.25;;;21.30;76.80;;;;;;5074447;28;20033;-68
2021/06/16 20:33:59;;;;;;;20.73;15.50;;;21.30;76.50;;;;;;5074050;28;20055;-69
2021/06/16 20:36:28;;;;;;;20.15;15.27;;;21.20;76.40;;;;;;5072335;28;20053;-69
2021/06/16 20:38:54;;;;;;;21.90;16.00;;;21.30;76.30;;;;;;5073978;28;20441;-71
2021/06/16 20:41:20;;;;;;;22.73;16.35;;;21.20;76.10;;;;;;5073841;28;20020;-69
2021/06/16 20:43:46;;;;;;;20.00;16.23;;;21.20;76.00;;;;;;5073942;28;20472;-69
2021/06/16 20:46:13;;;;;;;21.63;16.20;;;21.10;76.30;;;;;;5073825;28;20028;-68
2021/06/16 20:48:39;;;;;;;22.15;15.32;;;21.20;75.90;;;;;;5073513;28;20081;-68
2021/06/16 20:51:05;;;;;;;21.85;16.23;;;21.10;75.70;;;;;;5073591;28;20024;-68
2021/06/16 20:53:31;;;;;;;21.60;15.77;;;21.10;75.70;;;;;;5073918;28;20034;-68
2021/06/16 20:55:58;;;;;;;19.90;15.07;;;21.00;76.30;;;;;;5073488;28;20374;-70
2021/06/16 20:58:23;;;;;;;19.67;15.90;;;20.90;76.40;;;;;;5073522;28;20023;-68
2021/06/16 21:00:49;;;;;;;21.50;15.35;;;20.80;76.70;;;;;;5073538;28;20025;-70
2021/06/16 21:03:15;;;;;;;20.08;15.45;;;20.90;76.60;;;;;;5073524;28;20498;-69
2021/06/16 21:05:41;;;;;;;18.55;15.15;;;20.80;76.90;;;;;;5073506;28;20021;-72
2021/06/16 21:08:07;;;;;;;27.73;18.63;;;21.00;76.20;;;;;;5073452;28;20024;-68
2021/06/16 21:10:34;;;;;;;23.33;17.63;;;20.90;76.00;;;;;;5073337;28;20031;-69
2021/06/16 21:13:00;;;;;;;19.27;16.38;;;20.80;76.60;;;;;;5073316;28;20472;-70
2021/06/16 21:15:26;;;;;;;24.23;19.35;;;20.80;76.80;;;;;;5073224;28;20030;-68
2021/06/16 21:17:53;;;;;;;24.60;18.13;;;20.70;77.00;;;;;;5073258;28;20027;-70
2021/06/16 21:20:19;;;;;;;22.50;17.35;;;20.80;76.60;;;;;;5073495;28;20044;-70
2021/06/16 21:22:45;;;;;;;22.42;16.13;;;20.90;76.10;;;;;;5073159;28;20012;-70
2021/06/16 21:25:11;;;;;;;24.63;20.23;;;20.90;76.10;;;;;;5073325;28;20032;-70
2021/06/16 21:27:37;;;;;;;24.90;19.05;;;20.80;76.30;;;;;;5073173;28;20100;-68
2021/06/16 21:30:07;;;;;;;26.75;18.90;;;20.70;76.40;;;;;;5073135;28;20439;-70
2021/06/16 21:32:33;;;;;;;22.55;17.60;;;20.60;77.10;;;;;;5072955;28;20024;-67
2021/06/16 21:34:59;;;;;;;27.10;19.67;;;20.60;76.80;;;;;;5072826;28;20450;-71
2021/06/16 21:37:25;;;;;;;24.92;18.15;;;20.60;76.70;;;;;;5073152;28;20063;-69
2021/06/16 21:39:50;;;;;;;24.73;18.00;;;20.60;77.00;;;;;;5073045;28;20028;-70
2021/06/16 21:42:17;;;;;;;26.98;19.77;;;20.60;76.60;;;;;;5073034;28;20013;-67
2021/06/16 21:44:43;;;;;;;25.33;19.17;;;20.60;76.60;;;;;;5073032;28;20435;-67
2021/06/16 21:47:09;;;;;;;27.15;19.55;;;20.70;76.70;;;;;;5073013;28;20017;-69
2021/06/16 21:49:35;;;;;;;23.75;18.73;;;20.50;76.60;;;;;;5072926;28;20031;-70
2021/06/16 21:52:01;;;;;;;25.10;20.05;;;20.60;76.70;;;;;;5073129;28;20066;-70
2021/06/16 21:54:27;;;;;;;23.95;19.65;;;20.70;76.80;;;;;;5072873;28;20037;-68
2021/06/16 21:56:55;;;;;;;24.35;20.65;;;20.70;76.00;;;;;;5072798;28;20096;-70
2021/06/16 21:59:21;;;;;;;25.55;21.90;;;20.60;76.40;;;;;;5071545;28;20036;-68
2021/06/16 22:01:48;;;;;;;29.40;23.38;;;20.60;76.50;;;;;;5073081;28;20024;-69
2021/06/16 22:04:14;;;;;;;30.02;24.17;;;20.60;75.50;;;;;;5072554;28;20511;-67
2021/06/16 22:06:41;;;;;;;28.67;22.17;;;20.40;76.00;;;;;;5072823;28;20500;-69
2021/06/16 22:09:07;;;;;;;31.75;25.45;;;20.30;76.50;;;;;;5072752;28;20028;-69
2021/06/16 22:11:33;;;;;;;31.83;24.15;;;20.20;76.40;;;;;;5072991;28;20040;-71
2021/06/16 22:13:59;;;;;;;29.33;23.13;;;20.20;76.60;;;;;;5072676;28;20388;-69
2021/06/16 22:16:25;;;;;;;28.10;23.88;;;20.30;75.70;;;;;;5072640;28;20056;-70
2021/06/16 22:18:51;;;;;;;28.80;24.35;;;20.30;75.20;;;;;;5072633;28;20511;-70
2021/06/16 22:21:17;;;;;;;30.63;24.98;;;20.20;75.10;;;;;;5072640;28;20489;-71